createdAt,value
2018-08-16T00:00:55.838Z,18.41
2018-08-16T00:03:25.446Z,18.37
2018-08-16T00:05:55.003Z,18.35
2018-08-16T00:08:24.581Z,18.32
2018-08-16T00:10:54.167Z,18.29
2018-08-16T00:13:23.742Z,18.25
2018-08-16T00:15:53.606Z,18.22
2018-08-16T00:18:23.159Z,18.20
2018-08-16T00:20:52.708Z,18.16
2018-08-16T00:23:22.226Z,18.11
2018-08-16T00:25:51.766Z,18.09
2018-08-16T00:28:21.282Z,18.07
2018-08-16T00:30:50.863Z,18.03
2018-08-16T00:33:20.372Z,18.00
2018-08-16T00:35:49.914Z,18.01
2018-08-16T00:38:19.440Z,17.98
2018-08-16T00:40:49.018Z,17.95
2018-08-16T00:43:18.568Z,17.95
2018-08-16T00:45:48.132Z,17.93
2018-08-16T00:48:17.689Z,17.93
2018-08-16T00:50:47.237Z,17.90
2018-08-16T00:53:16.798Z,17.86
2018-08-16T00:55:46.667Z,17.81
2018-08-16T00:58:16.203Z,17.79
2018-08-16T01:00:45.739Z,17.75
2018-08-16T01:03:15.367Z,17.74
2018-08-16T01:05:44.879Z,17.70
2018-08-16T01:08:14.410Z,17.67
2018-08-16T01:10:43.948Z,17.63
2018-08-16T01:13:13.507Z,17.62
2018-08-16T01:15:43.035Z,17.60
2018-08-16T01:18:12.683Z,17.57
2018-08-16T01:20:42.252Z,17.54
2018-08-16T01:23:12.117Z,17.54
2018-08-16T01:25:41.995Z,17.50
2018-08-16T01:28:11.742Z,17.50
2018-08-16T01:30:41.627Z,17.46
2018-08-16T01:33:11.198Z,17.45
2018-08-16T01:35:40.806Z,17.44
2018-08-16T01:38:10.520Z,17.45
2018-08-16T01:40:40.723Z,17.42
2018-08-16T01:43:10.291Z,17.34
2018-08-16T01:45:40.159Z,17.25
2018-08-16T01:48:11.480Z,17.18
2018-08-16T01:50:41.583Z,17.14
2018-08-16T01:53:11.299Z,17.13
2018-08-16T01:55:40.833Z,17.12
2018-08-16T01:58:10.386Z,17.14
2018-08-16T02:00:39.957Z,17.11
2018-08-16T02:03:09.558Z,17.10
2018-08-16T02:05:39.097Z,17.10
2018-08-16T02:08:08.849Z,17.10
2018-08-16T02:10:38.412Z,17.08
2018-08-16T02:13:08.298Z,17.07
2018-08-16T02:15:38.170Z,17.08
2018-08-16T02:18:08.252Z,17.05
2018-08-16T02:20:37.798Z,17.03
2018-08-16T02:23:07.776Z,16.99
2018-08-16T02:25:37.727Z,16.95
2018-08-16T02:28:07.636Z,16.92
2018-08-16T02:30:37.563Z,16.91
2018-08-16T02:33:07.111Z,16.90
2018-08-16T02:35:37.002Z,16.88
2018-08-16T02:38:06.751Z,16.86
2018-08-16T02:40:36.303Z,16.85
2018-08-16T02:43:06.199Z,16.81
2018-08-16T02:45:35.740Z,16.81
2018-08-16T02:48:05.546Z,16.79
2018-08-16T02:50:35.116Z,16.75
2018-08-16T02:53:05.220Z,16.73
2018-08-16T02:55:35.144Z,16.70
2018-08-16T02:58:05.188Z,16.66
2018-08-16T03:00:34.739Z,16.64
2018-08-16T03:03:04.281Z,16.63
2018-08-16T03:05:33.892Z,16.61
2018-08-16T03:08:03.442Z,16.59
2018-08-16T03:10:32.972Z,16.54
2018-08-16T03:13:02.487Z,16.53
2018-08-16T03:15:32.011Z,16.52
2018-08-16T03:18:02.189Z,16.50
2018-08-16T03:20:31.743Z,16.50
2018-08-16T03:23:01.275Z,16.49
2018-08-16T03:25:30.778Z,16.49
2018-08-16T03:28:00.303Z,16.50
2018-08-16T03:30:29.829Z,16.43
2018-08-16T03:32:59.406Z,16.37
2018-08-16T03:35:28.939Z,16.27
2018-08-16T03:37:58.670Z,16.20
2018-08-16T03:40:28.214Z,16.14
2018-08-16T03:42:58.118Z,16.11
2018-08-16T03:45:28.075Z,16.10
2018-08-16T03:47:57.651Z,16.11
2018-08-16T03:50:28.046Z,16.14
2018-08-16T03:52:57.584Z,16.15
2018-08-16T03:55:27.351Z,16.17
2018-08-16T03:57:56.910Z,16.17
2018-08-16T04:00:26.437Z,16.16
2018-08-16T04:02:56.010Z,16.14
2018-08-16T04:05:25.554Z,16.14
2018-08-16T04:07:55.707Z,16.11
2018-08-16T04:10:25.243Z,16.10
2018-08-16T04:12:54.938Z,16.10
2018-08-16T04:15:24.814Z,16.09
2018-08-16T04:17:54.391Z,16.10
2018-08-16T04:20:23.964Z,16.08
2018-08-16T04:22:53.455Z,16.06
2018-08-16T04:25:22.978Z,16.07
2018-08-16T04:27:52.501Z,16.06
2018-08-16T04:30:22.038Z,16.05
2018-08-16T04:32:51.559Z,16.07
2018-08-16T04:35:21.100Z,16.06
2018-08-16T04:37:50.833Z,16.06
2018-08-16T04:40:20.371Z,16.10
2018-08-16T04:42:50.223Z,16.10
2018-08-16T04:45:19.810Z,16.11
2018-08-16T04:47:50.047Z,16.11
2018-08-16T04:50:19.964Z,16.12
2018-08-16T04:52:50.087Z,16.15
2018-08-16T04:55:19.966Z,16.19
2018-08-16T04:57:49.510Z,16.23
2018-08-16T05:00:19.448Z,16.26
2018-08-16T05:02:49.720Z,16.31
2018-08-16T05:05:19.648Z,16.36
2018-08-16T05:07:49.546Z,16.38
2018-08-16T05:10:19.078Z,16.39
2018-08-16T05:12:48.623Z,16.41
2018-08-16T05:15:18.174Z,16.43
2018-08-16T05:17:47.771Z,16.45
2018-08-16T05:20:17.647Z,16.48
2018-08-16T05:22:47.167Z,16.58
2018-08-16T05:25:16.682Z,16.78
2018-08-16T05:27:46.270Z,17.08
2018-08-16T05:30:15.943Z,17.45
2018-08-16T05:32:45.864Z,17.80
2018-08-16T05:35:15.795Z,18.15
2018-08-16T05:37:45.923Z,18.45
2018-08-16T05:40:15.511Z,18.73
2018-08-16T05:42:45.079Z,19.01
2018-08-16T05:45:14.737Z,19.30
2018-08-16T05:47:44.523Z,19.58
2018-08-16T05:50:14.784Z,19.81
2018-08-16T05:52:44.443Z,20.07
2018-08-16T05:55:14.164Z,20.34
2018-08-16T05:57:43.777Z,20.59
2018-08-16T06:00:14.665Z,20.82
2018-08-16T06:02:44.523Z,21.03
2018-08-16T06:05:14.612Z,21.22
2018-08-16T06:07:44.669Z,21.42
2018-08-16T06:10:14.397Z,21.58
2018-08-16T06:12:44.074Z,21.83
2018-08-16T06:15:13.791Z,22.00
2018-08-16T06:17:43.923Z,22.14
2018-08-16T06:20:13.719Z,22.37
2018-08-16T06:22:43.830Z,22.53
2018-08-16T06:25:14.295Z,22.70
2018-08-16T06:27:44.612Z,22.89
2018-08-16T06:30:17.207Z,23.10
2018-08-16T06:32:47.088Z,23.24
2018-08-16T06:35:17.107Z,23.52
2018-08-16T06:37:46.894Z,23.75
2018-08-16T06:40:18.111Z,23.95
2018-08-16T06:42:48.800Z,24.18
2018-08-16T06:45:18.499Z,24.36
2018-08-16T06:47:48.196Z,24.62
2018-08-16T06:50:17.952Z,24.73
2018-08-16T06:52:47.976Z,24.78
2018-08-16T06:55:17.718Z,24.86
2018-08-16T06:57:47.340Z,25.03
2018-08-16T07:00:17.076Z,25.20
2018-08-16T07:02:47.087Z,25.34
2018-08-16T07:05:16.806Z,25.54
2018-08-16T07:07:46.704Z,25.58
2018-08-16T07:10:16.727Z,25.69
2018-08-16T07:12:46.312Z,25.93
2018-08-16T07:15:16.775Z,26.15
2018-08-16T07:17:46.879Z,26.30
2018-08-16T07:20:16.663Z,26.47
2018-08-16T07:22:46.490Z,26.69
2018-08-16T07:25:16.384Z,26.79
2018-08-16T07:27:46.129Z,27.04
2018-08-16T07:30:15.698Z,27.02
2018-08-16T07:32:45.722Z,27.06
2018-08-16T07:35:15.512Z,27.31
2018-08-16T07:37:45.269Z,27.51
2018-08-16T07:40:15.262Z,27.80
2018-08-16T07:42:45.427Z,27.78
2018-08-16T07:45:14.985Z,27.72
2018-08-16T07:47:44.634Z,27.86
2018-08-16T07:50:14.316Z,27.96
2018-08-16T07:52:44.346Z,28.21
2018-08-16T07:55:14.065Z,28.36
2018-08-16T07:57:43.937Z,28.53
2018-08-16T08:00:17.916Z,28.69
2018-08-16T08:02:47.842Z,28.92
2018-08-16T08:05:17.650Z,29.19
2018-08-16T08:07:47.399Z,29.35
2018-08-16T08:10:17.012Z,29.47
2018-08-16T08:12:46.906Z,29.53
2018-08-16T08:15:16.574Z,29.61
2018-08-16T08:17:46.496Z,29.66
2018-08-16T08:20:16.815Z,29.86
2018-08-16T08:22:46.478Z,30.03
2018-08-16T08:25:16.538Z,30.14
2018-08-16T08:27:46.378Z,30.20
2018-08-16T08:30:17.483Z,30.34
2018-08-16T08:32:47.457Z,30.35
2018-08-16T08:35:17.174Z,30.45
2018-08-16T08:38:20.118Z,30.60
2018-08-16T08:40:49.699Z,30.74
2018-08-16T08:43:36.332Z,30.78
2018-08-16T08:46:06.371Z,30.70
2018-08-16T08:48:35.991Z,30.93
2018-08-16T08:51:06.607Z,31.03
2018-08-16T08:54:53.255Z,31.11
2018-08-16T08:57:39.882Z,31.27
2018-08-16T09:00:10.331Z,31.36
2018-08-16T09:02:40.361Z,31.36
2018-08-16T09:05:10.088Z,31.39
2018-08-16T09:07:39.812Z,31.38
2018-08-16T09:11:23.744Z,31.27
2018-08-16T09:14:10.246Z,31.38
2018-08-16T09:16:41.184Z,31.35
2018-08-16T09:19:12.050Z,31.48
2018-08-16T09:21:41.620Z,31.57
2018-08-16T09:24:11.281Z,31.66
2018-08-16T09:26:45.703Z,31.59
2018-08-16T09:30:34.824Z,31.66
2018-08-16T09:33:21.223Z,31.65
2018-08-16T09:35:50.766Z,31.59
2018-08-16T09:38:20.294Z,31.59
2018-08-16T09:40:49.820Z,31.55
2018-08-16T09:43:19.294Z,31.63
2018-08-16T09:47:13.775Z,31.75
2018-08-16T09:49:45.932Z,31.72
2018-08-16T09:52:16.127Z,31.61
2018-08-16T09:54:46.061Z,31.72
2018-08-16T09:57:16.537Z,31.78
2018-08-16T09:59:47.147Z,31.79
2018-08-16T10:02:18.717Z,31.72
2018-08-16T10:04:48.404Z,31.58
2018-08-16T10:07:18.098Z,31.52
2018-08-16T10:09:47.993Z,31.58
2018-08-16T10:12:17.695Z,31.60
2018-08-16T10:14:47.307Z,31.68
2018-08-16T10:17:16.995Z,31.71
2018-08-16T10:19:46.632Z,31.51
2018-08-16T10:22:16.240Z,31.60
2018-08-16T10:24:45.750Z,31.54
2018-08-16T10:27:15.505Z,31.51
2018-08-16T10:29:45.259Z,31.53
2018-08-16T10:32:14.972Z,31.50
2018-08-16T10:34:44.575Z,31.46
2018-08-16T10:37:14.703Z,31.31
2018-08-16T10:39:45.051Z,31.39
2018-08-16T10:42:14.615Z,31.45
2018-08-16T10:44:44.736Z,31.55
2018-08-16T10:47:14.538Z,31.52
2018-08-16T10:49:44.323Z,31.61
2018-08-16T10:52:14.595Z,31.69
2018-08-16T10:54:44.636Z,31.76
2018-08-16T10:57:14.288Z,31.76
2018-08-16T10:59:43.915Z,31.81
2018-08-16T11:02:13.631Z,31.94
2018-08-16T11:04:43.243Z,31.97
2018-08-16T11:07:13.420Z,32.03
2018-08-16T11:09:43.088Z,32.09
2018-08-16T11:12:12.882Z,32.04
2018-08-16T11:14:42.435Z,32.06
2018-08-16T11:17:11.984Z,31.94
2018-08-16T11:19:41.678Z,31.88
2018-08-16T11:22:11.403Z,31.82
2018-08-16T11:24:40.986Z,31.68
2018-08-16T11:27:10.835Z,31.70
2018-08-16T11:29:40.611Z,31.79
2018-08-16T11:32:10.641Z,31.82
2018-08-16T11:34:40.427Z,31.60
2018-08-16T11:37:09.964Z,31.44
2018-08-16T11:39:39.562Z,31.48
2018-08-16T11:42:09.294Z,31.53
2018-08-16T11:44:38.822Z,31.27
2018-08-16T11:47:08.383Z,31.15
2018-08-16T11:49:37.890Z,31.29
2018-08-16T11:52:07.939Z,31.42
2018-08-16T11:54:37.614Z,31.53
2018-08-16T11:57:07.449Z,31.58
2018-08-16T11:59:37.222Z,31.59
2018-08-16T12:02:06.929Z,31.56
2018-08-16T12:04:36.752Z,31.68
2018-08-16T12:07:06.999Z,31.65
2018-08-16T12:09:36.871Z,31.69
2018-08-16T12:12:07.266Z,31.72
2018-08-16T12:14:36.983Z,31.79
2018-08-16T12:17:07.143Z,31.78
2018-08-16T12:19:37.178Z,31.84
2018-08-16T12:22:07.303Z,31.83
2018-08-16T12:24:37.115Z,31.85
2018-08-16T12:27:07.409Z,31.91
2018-08-16T12:29:37.163Z,31.81
2018-08-16T12:32:07.159Z,31.74
2018-08-16T12:34:36.855Z,31.68
2018-08-16T12:37:06.772Z,31.66
2018-08-16T12:39:36.783Z,31.72
2018-08-16T12:42:06.891Z,31.75
2018-08-16T12:44:36.600Z,31.77
2018-08-16T12:47:06.667Z,31.79
2018-08-16T12:49:36.455Z,31.69
2018-08-16T12:52:07.182Z,31.66
2018-08-16T12:54:37.292Z,31.60
2018-08-16T12:57:07.213Z,31.43
2018-08-16T12:59:37.254Z,31.47
2018-08-16T13:02:07.077Z,31.56
2018-08-16T13:04:36.727Z,31.53
2018-08-16T13:07:06.776Z,31.63
2018-08-16T13:09:36.762Z,31.67
2018-08-16T13:12:06.691Z,31.69
2018-08-16T13:14:36.383Z,31.78
2018-08-16T13:17:06.440Z,31.84
2018-08-16T13:19:36.018Z,31.87
2018-08-16T13:22:05.647Z,31.87
2018-08-16T13:24:35.531Z,31.87
2018-08-16T13:27:06.372Z,31.87
2018-08-16T13:29:36.285Z,31.91
2018-08-16T13:32:06.533Z,31.91
2018-08-16T13:34:36.037Z,31.93
2018-08-16T13:37:05.880Z,31.96
2018-08-16T13:39:35.742Z,31.96
2018-08-16T13:42:05.384Z,31.98
2018-08-16T13:44:34.943Z,31.89
2018-08-16T13:47:04.675Z,31.74
2018-08-16T13:49:34.262Z,31.71
2018-08-16T13:52:04.223Z,31.72
2018-08-16T13:54:33.918Z,31.80
2018-08-16T13:57:03.619Z,31.82
2018-08-16T13:59:33.596Z,31.87
2018-08-16T14:02:03.207Z,31.91
2018-08-16T14:04:32.924Z,31.96
2018-08-16T14:07:02.532Z,31.97
2018-08-16T14:09:32.348Z,31.92
2018-08-16T14:12:01.855Z,31.93
2018-08-16T14:14:31.413Z,31.91
2018-08-16T14:17:00.970Z,31.93
2018-08-16T14:19:30.669Z,31.88
2018-08-16T14:22:00.334Z,31.93
2018-08-16T14:24:30.395Z,31.96
2018-08-16T14:27:00.032Z,31.97
2018-08-16T14:29:29.841Z,32.01
2018-08-16T14:32:00.209Z,32.06
2018-08-16T14:34:29.931Z,32.10
2018-08-16T14:37:00.112Z,32.08
2018-08-16T14:39:29.896Z,32.14
2018-08-16T14:41:59.463Z,32.20
2018-08-16T14:44:29.000Z,32.22
2018-08-16T14:46:58.543Z,32.23
2018-08-16T14:49:28.075Z,32.28
2018-08-16T14:51:58.341Z,32.29
2018-08-16T14:54:28.032Z,32.27
2018-08-16T14:56:57.884Z,32.19
2018-08-16T14:59:27.564Z,32.22
2018-08-16T15:01:57.303Z,32.27
2018-08-16T15:04:27.275Z,32.30
2018-08-16T15:06:57.023Z,32.32
2018-08-16T15:09:26.876Z,32.28
2018-08-16T15:11:56.714Z,32.28
2018-08-16T15:14:26.768Z,32.21
2018-08-16T15:16:56.422Z,32.21
2018-08-16T15:19:26.177Z,32.18
2018-08-16T15:21:55.843Z,32.23
2018-08-16T15:24:25.494Z,32.26
2018-08-16T15:26:55.100Z,32.26
2018-08-16T15:29:24.842Z,32.25
2018-08-16T15:31:55.112Z,32.24
2018-08-16T15:34:24.838Z,32.24
2018-08-16T15:36:54.480Z,32.15
2018-08-16T15:39:24.243Z,32.11
2018-08-16T15:41:53.931Z,32.05
2018-08-16T15:44:23.571Z,32.03
2018-08-16T15:46:53.871Z,32.02
2018-08-16T15:49:23.903Z,32.01
2018-08-16T15:51:53.647Z,31.97
2018-08-16T15:54:23.290Z,31.91
2018-08-16T15:56:52.939Z,31.85
2018-08-16T15:59:22.487Z,31.83
2018-08-16T16:01:52.359Z,31.81
2018-08-16T16:04:21.995Z,31.81
2018-08-16T16:06:51.896Z,31.80
2018-08-16T16:09:21.460Z,31.83
2018-08-16T16:11:51.211Z,31.83
2018-08-16T16:14:20.798Z,31.84
2018-08-16T16:16:50.667Z,31.82
2018-08-16T16:19:20.702Z,31.77
2018-08-16T16:21:50.427Z,31.72
2018-08-16T16:24:20.122Z,31.71
2018-08-16T16:26:49.863Z,31.62
2018-08-16T16:29:19.536Z,31.53
2018-08-16T16:31:49.467Z,31.51
2018-08-16T16:34:19.099Z,31.48
2018-08-16T16:36:48.883Z,31.46
2018-08-16T16:39:18.720Z,31.47
2018-08-16T16:41:49.198Z,31.47
2018-08-16T16:44:18.825Z,31.46
2018-08-16T16:46:48.352Z,31.45
2018-08-16T16:49:22.268Z,31.45
2018-08-16T16:51:53.398Z,31.43
2018-08-16T16:54:24.269Z,31.38
2018-08-16T16:56:54.327Z,31.33
2018-08-16T16:59:24.880Z,31.28
2018-08-16T17:01:54.579Z,31.26
2018-08-16T17:04:24.548Z,31.20
2018-08-16T17:06:54.580Z,31.12
2018-08-16T17:09:24.548Z,31.00
2018-08-16T17:11:54.829Z,30.90
2018-08-16T17:14:24.847Z,30.83
2018-08-16T17:16:54.653Z,30.81
2018-08-16T17:19:24.759Z,30.69
2018-08-16T17:21:54.646Z,30.62
2018-08-16T17:24:24.390Z,30.57
2018-08-16T17:26:58.686Z,30.45
2018-08-16T17:29:28.384Z,30.42
2018-08-16T17:31:58.084Z,30.40
2018-08-16T17:34:28.103Z,30.35
2018-08-16T17:36:57.911Z,30.29
2018-08-16T17:39:27.696Z,30.25
2018-08-16T17:41:57.647Z,30.17
2018-08-16T17:44:27.648Z,30.12
2018-08-16T17:46:57.455Z,30.07
2018-08-16T17:49:27.164Z,30.02
2018-08-16T17:51:56.913Z,29.98
2018-08-16T17:54:26.872Z,29.90
2018-08-16T17:56:56.879Z,29.85
2018-08-16T17:59:26.715Z,29.82
2018-08-16T18:01:56.419Z,29.78
2018-08-16T18:04:26.142Z,29.74
2018-08-16T18:06:55.803Z,29.71
2018-08-16T18:09:25.799Z,29.68
2018-08-16T18:11:55.525Z,29.61
2018-08-16T18:14:25.227Z,29.55
2018-08-16T18:16:54.950Z,29.49
2018-08-16T18:19:24.579Z,29.41
2018-08-16T18:21:54.249Z,29.34
2018-08-16T18:24:25.667Z,29.24
2018-08-16T18:26:55.360Z,29.17
2018-08-16T18:29:25.247Z,29.09
2018-08-16T18:31:55.043Z,29.01
2018-08-16T18:34:24.736Z,28.91
2018-08-16T18:36:55.216Z,28.78
2018-08-16T18:39:24.994Z,28.68
2018-08-16T18:41:54.718Z,28.60
2018-08-16T18:44:24.581Z,28.48
2018-08-16T18:46:54.220Z,28.28
2018-08-16T18:49:23.988Z,28.15
2018-08-16T18:51:53.799Z,28.05
2018-08-16T18:54:23.368Z,27.98
2018-08-16T18:56:53.119Z,27.89
2018-08-16T18:59:22.804Z,27.79
2018-08-16T19:01:52.580Z,27.68
2018-08-16T19:04:22.183Z,27.55
2018-08-16T19:06:51.946Z,27.40
2018-08-16T19:09:21.707Z,27.27
2018-08-16T19:11:51.347Z,27.16
2018-08-16T19:14:21.143Z,27.08
2018-08-16T19:16:50.861Z,27.02
2018-08-16T19:19:20.546Z,26.93
2018-08-16T19:21:50.160Z,26.85
2018-08-16T19:24:19.950Z,26.76
2018-08-16T19:26:49.942Z,26.67
2018-08-16T19:29:19.567Z,26.62
2018-08-16T19:31:49.347Z,26.49
2018-08-16T19:34:19.120Z,26.42
2018-08-16T19:36:48.975Z,26.32
2018-08-16T19:39:18.691Z,26.28
2018-08-16T19:41:48.407Z,26.20
2018-08-16T19:44:18.156Z,26.13
2018-08-16T19:46:47.879Z,26.05
2018-08-16T19:49:21.286Z,25.97
2018-08-16T19:51:51.656Z,25.88
2018-08-16T19:54:21.321Z,25.76
2018-08-16T19:56:50.995Z,25.68
2018-08-16T19:59:20.711Z,25.63
2018-08-16T20:01:50.590Z,25.56
2018-08-16T20:04:20.420Z,25.51
2018-08-16T20:06:50.143Z,25.45
2018-08-16T20:09:19.862Z,25.41
2018-08-16T20:11:49.670Z,25.35
2018-08-16T20:14:19.305Z,25.26
2018-08-16T20:16:48.847Z,25.14
2018-08-16T20:19:18.514Z,25.09
2018-08-16T20:21:48.416Z,25.00
2018-08-16T20:24:18.225Z,24.97
2018-08-16T20:26:48.014Z,24.91
2018-08-16T20:29:17.671Z,24.82
2018-08-16T20:31:47.378Z,24.77
2018-08-16T20:34:17.056Z,24.71
2018-08-16T20:36:46.787Z,24.68
2018-08-16T20:39:16.606Z,24.64
2018-08-16T20:41:46.202Z,24.59
2018-08-16T20:44:16.191Z,24.50
2018-08-16T20:46:45.944Z,24.47
2018-08-16T20:49:15.594Z,24.42
2018-08-16T20:51:45.415Z,24.40
2018-08-16T20:54:15.027Z,24.29
2018-08-16T20:56:44.774Z,24.23
2018-08-16T20:59:14.443Z,24.20
2018-08-16T21:01:44.066Z,24.14
2018-08-16T21:04:13.974Z,24.06
2018-08-16T21:06:43.710Z,23.96
2018-08-16T21:09:13.358Z,23.92
2018-08-16T21:11:43.081Z,23.83
2018-08-16T21:14:12.935Z,23.68
2018-08-16T21:16:42.935Z,23.66
2018-08-16T21:19:12.541Z,23.61
2018-08-16T21:21:42.243Z,23.53
2018-08-16T21:24:12.094Z,23.46
2018-08-16T21:26:41.971Z,23.40
2018-08-16T21:29:11.706Z,23.35
2018-08-16T21:31:41.403Z,23.29
2018-08-16T21:34:10.982Z,23.22
2018-08-16T21:36:40.895Z,23.17
2018-08-16T21:39:11.682Z,23.11
2018-08-16T21:41:41.348Z,23.06
2018-08-16T21:44:11.736Z,23.01
2018-08-16T21:46:41.879Z,22.96
2018-08-16T21:49:11.528Z,22.94
2018-08-16T21:51:41.207Z,22.88
2018-08-16T21:54:10.934Z,22.84
2018-08-16T21:56:40.746Z,22.79
2018-08-16T21:59:10.524Z,22.76
2018-08-16T22:01:40.278Z,22.71
2018-08-16T22:04:09.942Z,22.68
2018-08-16T22:06:56.466Z,22.64
2018-08-16T22:09:26.164Z,22.58
2018-08-16T22:11:55.991Z,22.53
2018-08-16T22:14:25.529Z,22.49
2018-08-16T22:16:55.040Z,22.44
2018-08-16T22:19:24.687Z,22.40
2018-08-16T22:21:54.450Z,22.36
2018-08-16T22:24:24.137Z,22.31
2018-08-16T22:26:55.239Z,22.25
2018-08-16T22:29:25.051Z,22.22
2018-08-16T22:31:54.786Z,22.17
2018-08-16T22:34:24.667Z,22.15
2018-08-16T22:36:54.631Z,22.08
2018-08-16T22:39:24.729Z,22.01
2018-08-16T22:41:54.647Z,21.97
2018-08-16T22:44:24.373Z,21.94
2018-08-16T22:46:54.098Z,21.88
2018-08-16T22:49:23.642Z,21.88
2018-08-16T22:51:53.191Z,21.83
2018-08-16T22:54:22.923Z,21.79
2018-08-16T22:56:52.951Z,21.76
2018-08-16T22:59:22.508Z,21.71
2018-08-16T23:01:52.041Z,21.66
2018-08-16T23:04:21.829Z,21.61
2018-08-16T23:06:51.341Z,21.56
2018-08-16T23:09:20.882Z,21.54
2018-08-16T23:11:50.463Z,21.52
2018-08-16T23:14:20.376Z,21.46
2018-08-16T23:16:49.884Z,21.44
2018-08-16T23:19:19.422Z,21.40
2018-08-16T23:21:48.950Z,21.31
2018-08-16T23:24:18.455Z,21.27
2018-08-16T23:26:48.007Z,21.23
2018-08-16T23:29:17.507Z,21.18
2018-08-16T23:31:47.023Z,21.09
2018-08-16T23:34:16.530Z,21.06
2018-08-16T23:36:46.398Z,21.01
2018-08-16T23:39:15.938Z,20.97
2018-08-16T23:41:45.515Z,20.96
2018-08-16T23:44:15.310Z,20.92
2018-08-16T23:46:44.941Z,20.87
2018-08-16T23:49:14.523Z,20.85
2018-08-16T23:51:44.559Z,20.82
2018-08-16T23:54:14.160Z,20.76
2018-08-16T23:56:43.838Z,20.68
2018-08-16T23:59:13.463Z,20.58
